sensor_id;sensor_type;location;lat;lon;timestamp;pressure;altitude;pressure_sealevel;temperature
79172;BMP280;68597;53.238;-1.418;2023-06-10T00:02:18;100995.53;;;14.76
79172;BMP280;68597;53.238;-1.418;2023-06-10T00:04:45;100991.25;;;14.75
79172;BMP280;68597;53.238;-1.418;2023-06-10T00:07:11;100986.72;;;14.72
79172;BMP280;68597;53.238;-1.418;2023-06-10T00:09:40;100983.91;;;14.72
79172;BMP280;68597;53.238;-1.418;2023-06-10T00:12:08;100992.13;;;14.70
79172;BMP280;68597;53.238;-1.418;2023-06-10T00:14:39;100983.97;;;14.59
79172;BMP280;68597;53.238;-1.418;2023-06-10T00:17:06;100994.53;;;14.66
79172;BMP280;68597;53.238;-1.418;2023-06-10T00:19:32;101007.09;;;14.65
79172;BMP280;68597;53.238;-1.418;2023-06-10T00:21:58;100994.34;;;14.64
79172;BMP280;68597;53.238;-1.418;2023-06-10T00:24:25;100997.16;;;14.64
79172;BMP280;68597;53.238;-1.418;2023-06-10T00:26:53;100991.34;;;14.62
79172;BMP280;68597;53.238;-1.418;2023-06-10T00:29:19;100993.72;;;14.58
79172;BMP280;68597;53.238;-1.418;2023-06-10T00:31:45;100987.50;;;14.52
79172;BMP280;68597;53.238;-1.418;2023-06-10T00:34:12;100983.81;;;14.57
79172;BMP280;68597;53.238;-1.418;2023-06-10T00:36:40;100980.78;;;14.55
79172;BMP280;68597;53.238;-1.418;2023-06-10T00:39:07;100987.16;;;14.55
79172;BMP280;68597;53.238;-1.418;2023-06-10T00:41:35;100976.44;;;14.54
79172;BMP280;68597;53.238;-1.418;2023-06-10T00:44:04;100973.44;;;14.52
79172;BMP280;68597;53.238;-1.418;2023-06-10T00:46:30;100975.31;;;14.49
79172;BMP280;68597;53.238;-1.418;2023-06-10T00:48:56;100965.34;;;14.48
79172;BMP280;68597;53.238;-1.418;2023-06-10T00:51:23;100963.84;;;14.47
79172;BMP280;68597;53.238;-1.418;2023-06-10T00:53:51;100955.97;;;14.46
79172;BMP280;68597;53.238;-1.418;2023-06-10T00:56:18;100957.06;;;14.43
79172;BMP280;68597;53.238;-1.418;2023-06-10T00:58:48;100957.84;;;14.43
79172;BMP280;68597;53.238;-1.418;2023-06-10T01:01:16;100957.06;;;14.43
79172;BMP280;68597;53.238;-1.418;2023-06-10T01:03:42;100954.78;;;14.41
79172;BMP280;68597;53.238;-1.418;2023-06-10T01:06:19;100962.31;;;14.39
79172;BMP280;68597;53.238;-1.418;2023-06-10T01:08:50;100963.38;;;14.36
79172;BMP280;68597;53.238;-1.418;2023-06-10T01:11:22;100960.38;;;14.34
79172;BMP280;68597;53.238;-1.418;2023-06-10T01:13:50;100958.88;;;14.33
79172;BMP280;68597;53.238;-1.418;2023-06-10T01:16:21;100955.09;;;14.30
79172;BMP280;68597;53.238;-1.418;2023-06-10T01:18:48;100952.81;;;14.29
79172;BMP280;68597;53.238;-1.418;2023-06-10T01:21:20;100951.31;;;14.28
79172;BMP280;68597;53.238;-1.418;2023-06-10T01:23:47;100950.00;;;14.29
79172;BMP280;68597;53.238;-1.418;2023-06-10T01:26:14;100947.19;;;14.29
79172;BMP280;68597;53.238;-1.418;2023-06-10T01:28:58;100947.19;;;14.29
79172;BMP280;68597;53.238;-1.418;2023-06-10T01:31:32;100944.75;;;14.25
79172;BMP280;68597;53.238;-1.418;2023-06-10T01:34:01;100942.69;;;14.26
79172;BMP280;68597;53.238;-1.418;2023-06-10T01:36:30;100939.88;;;14.26
79172;BMP280;68597;53.238;-1.418;2023-06-10T01:38:58;100937.06;;;14.26
79172;BMP280;68597;53.238;-1.418;2023-06-10T01:41:25;100915.97;;;14.11
79172;BMP280;68597;53.238;-1.418;2023-06-10T01:43:54;100936.53;;;14.27
79172;BMP280;68597;53.238;-1.418;2023-06-10T01:46:20;100935.78;;;14.27
79172;BMP280;68597;53.238;-1.418;2023-06-10T01:48:47;100940.09;;;14.28
79172;BMP280;68597;53.238;-1.418;2023-06-10T01:51:17;100932.41;;;14.28
79172;BMP280;68597;53.238;-1.418;2023-06-10T01:53:46;100930.94;;;14.27
79172;BMP280;68597;53.238;-1.418;2023-06-10T01:56:12;100928.13;;;14.27
79172;BMP280;68597;53.238;-1.418;2023-06-10T01:58:39;100930.16;;;14.27
79172;BMP280;68597;53.238;-1.418;2023-06-10T02:01:05;100932.97;;;14.27
79172;BMP280;68597;53.238;-1.418;2023-06-10T02:03:32;100925.84;;;14.26
79172;BMP280;68597;53.238;-1.418;2023-06-10T02:05:57;100931.47;;;14.26
79172;BMP280;68597;53.238;-1.418;2023-06-10T02:08:23;100929.94;;;14.25
79172;BMP280;68597;53.238;-1.418;2023-06-10T02:10:56;100925.84;;;14.26
79172;BMP280;68597;53.238;-1.418;2023-06-10T02:13:22;100927.34;;;14.27
79172;BMP280;68597;53.238;-1.418;2023-06-10T02:15:53;100927.34;;;14.27
79172;BMP280;68597;53.238;-1.418;2023-06-10T02:18:20;100903.66;;;14.14
79172;BMP280;68597;53.238;-1.418;2023-06-10T02:20:48;100918.94;;;14.27
79172;BMP280;68597;53.238;-1.418;2023-06-10T02:23:14;100901.75;;;14.09
79172;BMP280;68597;53.238;-1.418;2023-06-10T02:25:42;100907.09;;;14.20
79172;BMP280;68597;53.238;-1.418;2023-06-10T02:28:11;100913.09;;;14.25
79172;BMP280;68597;53.238;-1.418;2023-06-10T02:30:39;100919.84;;;14.22
79172;BMP280;68597;53.238;-1.418;2023-06-10T02:33:05;100908.75;;;14.23
79172;BMP280;68597;53.238;-1.418;2023-06-10T02:35:31;100910.81;;;14.23
79172;BMP280;68597;53.238;-1.418;2023-06-10T02:37:58;100910.06;;;14.22
79172;BMP280;68597;53.238;-1.418;2023-06-10T02:40:25;100889.00;;;14.08
79172;BMP280;68597;53.238;-1.418;2023-06-10T02:42:52;100905.94;;;14.23
79172;BMP280;68597;53.238;-1.418;2023-06-10T02:45:22;100898.81;;;14.22
79172;BMP280;68597;53.238;-1.418;2023-06-10T02:47:49;100908.59;;;14.22
79172;BMP280;68597;53.238;-1.418;2023-06-10T02:50:16;100904.28;;;14.20
79172;BMP280;68597;53.238;-1.418;2023-06-10T02:52:55;100905.56;;;14.19
79172;BMP280;68597;53.238;-1.418;2023-06-10T02:55:22;100902.53;;;14.17
79172;BMP280;68597;53.238;-1.418;2023-06-10T02:57:54;100912.84;;;14.15
79172;BMP280;68597;53.238;-1.418;2023-06-10T03:00:23;100914.13;;;14.14
79172;BMP280;68597;53.238;-1.418;2023-06-10T03:02:51;100909.28;;;14.14
79172;BMP280;68597;53.238;-1.418;2023-06-10T03:05:22;100903.66;;;14.14
79172;BMP280;68597;53.238;-1.418;2023-06-10T03:07:51;100905.19;;;14.15
79172;BMP280;68597;53.238;-1.418;2023-06-10T03:10:17;100894.78;;;14.10
79172;BMP280;68597;53.238;-1.418;2023-06-10T03:12:43;100910.78;;;14.15
79172;BMP280;68597;53.238;-1.418;2023-06-10T03:15:10;100886.72;;;14.07
79172;BMP280;68597;53.238;-1.418;2023-06-10T03:17:39;100900.84;;;14.14
79172;BMP280;68597;53.238;-1.418;2023-06-10T03:20:09;100910.78;;;14.15
79172;BMP280;68597;53.238;-1.418;2023-06-10T03:22:40;100901.59;;;14.15
79172;BMP280;68597;53.238;-1.418;2023-06-10T03:25:27;100899.34;;;14.13
79172;BMP280;68597;53.238;-1.418;2023-06-10T03:27:54;100907.75;;;14.13
79172;BMP280;68597;53.238;-1.418;2023-06-10T03:30:24;100903.22;;;14.10
79172;BMP280;68597;53.238;-1.418;2023-06-10T03:32:57;100898.34;;;14.11
79172;BMP280;68597;53.238;-1.418;2023-06-10T03:35:26;100882.94;;;14.04
79172;BMP280;68597;53.238;-1.418;2023-06-10T03:37:52;100890.53;;;14.09
79172;BMP280;68597;53.238;-1.418;2023-06-10T03:40:19;100891.97;;;14.10
79172;BMP280;68597;53.238;-1.418;2023-06-10T03:43:01;100890.53;;;14.09
79172;BMP280;68597;53.238;-1.418;2023-06-10T03:45:28;100899.47;;;14.08
79172;BMP280;68597;53.238;-1.418;2023-06-10T03:48:01;100891.06;;;14.08
79172;BMP280;68597;53.238;-1.418;2023-06-10T03:50:36;100890.28;;;14.07
79172;BMP280;68597;53.238;-1.418;2023-06-10T03:53:03;100893.09;;;14.07
79172;BMP280;68597;53.238;-1.418;2023-06-10T03:55:39;100891.59;;;14.06
79172;BMP280;68597;53.238;-1.418;2023-06-10T03:58:06;100882.41;;;14.06
79172;BMP280;68597;53.238;-1.418;2023-06-10T04:00:34;100884.44;;;14.05
79172;BMP280;68597;53.238;-1.418;2023-06-10T04:03:03;100882.94;;;14.04
79172;BMP280;68597;53.238;-1.418;2023-06-10T04:05:35;100891.19;;;14.02
79172;BMP280;68597;53.238;-1.418;2023-06-10T04:08:02;100891.19;;;14.02
79172;BMP280;68597;53.238;-1.418;2023-06-10T04:10:33;100895.28;;;14.01
79172;BMP280;68597;53.238;-1.418;2023-06-10T04:13:00;100900.91;;;14.01
79172;BMP280;68597;53.238;-1.418;2023-06-10T04:15:32;100900.91;;;14.01
79172;BMP280;68597;53.238;-1.418;2023-06-10T04:17:59;100906.53;;;14.01
79172;BMP280;68597;53.238;-1.418;2023-06-10T04:20:30;100891.94;;;14.03
79172;BMP280;68597;53.238;-1.418;2023-06-10T04:23:16;100889.31;;;14.05
79172;BMP280;68597;53.238;-1.418;2023-06-10T04:25:56;100890.06;;;14.05
79172;BMP280;68597;53.238;-1.418;2023-06-10T04:28:25;100884.44;;;14.05
79172;BMP280;68597;53.238;-1.418;2023-06-10T04:30:56;100884.13;;;14.09
79172;BMP280;68597;53.238;-1.418;2023-06-10T04:33:32;100890.53;;;14.09
79172;BMP280;68597;53.238;-1.418;2023-06-10T04:36:04;100894.25;;;14.12
79172;BMP280;68597;53.238;-1.418;2023-06-10T04:38:32;100879.66;;;14.13
79172;BMP280;68597;53.238;-1.418;2023-06-10T04:41:04;100875.56;;;14.14
79172;BMP280;68597;53.238;-1.418;2023-06-10T04:43:34;100878.53;;;14.16
79172;BMP280;68597;53.238;-1.418;2023-06-10T04:46:01;100882.34;;;14.19
79172;BMP280;68597;53.238;-1.418;2023-06-10T04:48:41;100871.84;;;14.19
79172;BMP280;68597;53.238;-1.418;2023-06-10T04:51:10;100867.75;;;14.20
79172;BMP280;68597;53.238;-1.418;2023-06-10T04:53:37;100870.56;;;14.20
79172;BMP280;68597;53.238;-1.418;2023-06-10T04:56:03;100866.25;;;14.19
79172;BMP280;68597;53.238;-1.418;2023-06-10T04:58:31;100860.97;;;14.16
79172;BMP280;68597;53.238;-1.418;2023-06-10T05:00:58;100869.28;;;14.22
79172;BMP280;68597;53.238;-1.418;2023-06-10T05:03:25;100860.84;;;14.22
79172;BMP280;68597;53.238;-1.418;2023-06-10T05:05:52;100865.88;;;14.23
79172;BMP280;68597;53.238;-1.418;2023-06-10T05:08:20;100873.53;;;14.22
79172;BMP280;68597;53.238;-1.418;2023-06-10T05:10:48;100868.91;;;14.25
79172;BMP280;68597;53.238;-1.418;2023-06-10T05:13:14;100864.94;;;14.20
79172;BMP280;68597;53.238;-1.418;2023-06-10T05:15:40;100871.69;;;14.25
79172;BMP280;68597;53.238;-1.418;2023-06-10T05:18:06;100865.31;;;14.25
79172;BMP280;68597;53.238;-1.418;2023-06-10T05:20:32;100875.28;;;14.26
79172;BMP280;68597;53.238;-1.418;2023-06-10T05:22:59;100869.66;;;14.26
79172;BMP280;68597;53.238;-1.418;2023-06-10T05:25:30;100872.66;;;14.28
79172;BMP280;68597;53.238;-1.418;2023-06-10T05:27:57;100874.13;;;14.29
79172;BMP280;68597;53.238;-1.418;2023-06-10T05:30:24;100843.91;;;14.14
79172;BMP280;68597;53.238;-1.418;2023-06-10T05:32:50;100865.94;;;14.31
79172;BMP280;68597;53.238;-1.418;2023-06-10T05:35:16;100866.16;;;14.33
79172;BMP280;68597;53.238;-1.418;2023-06-10T05:37:42;100867.84;;;14.36
79172;BMP280;68597;53.238;-1.418;2023-06-10T05:40:10;100865.25;;;14.38
79172;BMP280;68597;53.238;-1.418;2023-06-10T05:42:39;100860.91;;;14.37
79172;BMP280;68597;53.238;-1.418;2023-06-10T05:45:06;100871.78;;;14.40
79172;BMP280;68597;53.238;-1.418;2023-06-10T05:47:32;100872.75;;;14.43
79172;BMP280;68597;53.238;-1.418;2023-06-10T05:49:58;100863.78;;;14.44
79172;BMP280;68597;53.238;-1.418;2023-06-10T05:52:25;100863.97;;;14.46
79172;BMP280;68597;53.238;-1.418;2023-06-10T05:54:51;100872.06;;;14.50
79172;BMP280;68597;53.238;-1.418;2023-06-10T05:57:17;100875.06;;;14.52
79172;BMP280;68597;53.238;-1.418;2023-06-10T05:59:46;100878.06;;;14.54
79172;BMP280;68597;53.238;-1.418;2023-06-10T06:02:12;100877.00;;;14.57
79172;BMP280;68597;53.238;-1.418;2023-06-10T06:04:38;100873.06;;;14.60
79172;BMP280;68597;53.238;-1.418;2023-06-10T06:07:04;100880.56;;;14.65
79172;BMP280;68597;53.238;-1.418;2023-06-10T06:09:31;100880.78;;;14.67
79172;BMP280;68597;53.238;-1.418;2023-06-10T06:11:57;100884.56;;;14.69
79172;BMP280;68597;53.238;-1.418;2023-06-10T06:14:23;100885.72;;;14.74
79172;BMP280;68597;53.238;-1.418;2023-06-10T06:16:51;100870.34;;;14.75
79172;BMP280;68597;53.238;-1.418;2023-06-10T06:19:17;100885.34;;;14.77
79172;BMP280;68597;53.238;-1.418;2023-06-10T06:21:44;100881.97;;;14.79
79172;BMP280;68597;53.238;-1.418;2023-06-10T06:24:10;100886.47;;;14.82
79172;BMP280;68597;53.238;-1.418;2023-06-10T06:26:36;100879.78;;;14.85
79172;BMP280;68597;53.238;-1.418;2023-06-10T06:29:03;100888.38;;;14.87
79172;BMP280;68597;53.238;-1.418;2023-06-10T06:31:30;100888.81;;;14.91
79172;BMP280;68597;53.238;-1.418;2023-06-10T06:33:57;100882.03;;;14.94
79172;BMP280;68597;53.238;-1.418;2023-06-10T06:36:23;100885.06;;;14.96
79172;BMP280;68597;53.238;-1.418;2023-06-10T06:38:49;100883.19;;;14.99
79172;BMP280;68597;53.238;-1.418;2023-06-10T06:41:15;100879.50;;;15.04
79172;BMP280;68597;53.238;-1.418;2023-06-10T06:43:41;100875.00;;;15.08
79172;BMP280;68597;53.238;-1.418;2023-06-10T06:46:24;100882.72;;;15.15
79172;BMP280;68597;53.238;-1.418;2023-06-10T06:48:50;100881.03;;;15.20
79172;BMP280;68597;53.238;-1.418;2023-06-10T06:51:20;100878.81;;;15.26
79172;BMP280;68597;53.238;-1.418;2023-06-10T06:53:46;100887.25;;;15.33
79172;BMP280;68597;53.238;-1.418;2023-06-10T06:56:12;100878.06;;;15.41
79172;BMP280;68597;53.238;-1.418;2023-06-10T06:58:38;100878.47;;;15.45
79172;BMP280;68597;53.238;-1.418;2023-06-10T07:01:06;100880.00;;;15.53
79172;BMP280;68597;53.238;-1.418;2023-06-10T07:03:31;100879.44;;;15.62
79172;BMP280;68597;53.238;-1.418;2023-06-10T07:05:57;100878.13;;;15.71
79172;BMP280;68597;53.238;-1.418;2023-06-10T07:08:26;100875.53;;;15.80
79172;BMP280;68597;53.238;-1.418;2023-06-10T07:10:51;100879.28;;;15.90
79172;BMP280;68597;53.238;-1.418;2023-06-10T07:13:20;100854.47;;;15.89
79172;BMP280;68597;53.238;-1.418;2023-06-10T07:15:47;100877.00;;;16.12
79172;BMP280;68597;53.238;-1.418;2023-06-10T07:18:15;100871.56;;;16.21
79172;BMP280;68597;53.238;-1.418;2023-06-10T07:20:41;100874.34;;;16.36
79172;BMP280;68597;53.238;-1.418;2023-06-10T07:23:07;100870.19;;;16.52
79172;BMP280;68597;53.238;-1.418;2023-06-10T07:25:35;100879.56;;;16.70
79172;BMP280;68597;53.238;-1.418;2023-06-10T07:28:03;100882.09;;;16.91
79172;BMP280;68597;53.238;-1.418;2023-06-10T07:30:29;100872.97;;;17.07
79172;BMP280;68597;53.238;-1.418;2023-06-10T07:32:55;100885.28;;;17.27
79172;BMP280;68597;53.238;-1.418;2023-06-10T07:35:22;100873.09;;;17.49
79172;BMP280;68597;53.238;-1.418;2023-06-10T07:37:48;100860.53;;;17.67
79172;BMP280;68597;53.238;-1.418;2023-06-10T07:40:15;100877.25;;;17.98
79172;BMP280;68597;53.238;-1.418;2023-06-10T07:42:43;100878.13;;;18.25
79172;BMP280;68597;53.238;-1.418;2023-06-10T07:45:11;100869.94;;;18.46
79172;BMP280;68597;53.238;-1.418;2023-06-10T07:47:37;100868.34;;;18.70
79172;BMP280;68597;53.238;-1.418;2023-06-10T07:50:04;100873.91;;;18.94
79172;BMP280;68597;53.238;-1.418;2023-06-10T07:52:30;100871.31;;;19.16
79172;BMP280;68597;53.238;-1.418;2023-06-10T07:54:57;100872.63;;;19.32
79172;BMP280;68597;53.238;-1.418;2023-06-10T07:57:24;100857.72;;;19.41
79172;BMP280;68597;53.238;-1.418;2023-06-10T07:59:52;100876.31;;;19.61
79172;BMP280;68597;53.238;-1.418;2023-06-10T08:02:18;100874.56;;;19.75
79172;BMP280;68597;53.238;-1.418;2023-06-10T08:04:44;100866.34;;;19.89
79172;BMP280;68597;53.238;-1.418;2023-06-10T08:07:10;100869.81;;;20.06
79172;BMP280;68597;53.238;-1.418;2023-06-10T08:09:37;100876.69;;;20.22
79172;BMP280;68597;53.238;-1.418;2023-06-10T08:12:05;100874.63;;;20.33
79172;BMP280;68597;53.238;-1.418;2023-06-10T08:14:32;100865.38;;;20.42
79172;BMP280;68597;53.238;-1.418;2023-06-10T08:17:00;100873.44;;;20.55
79172;BMP280;68597;53.238;-1.418;2023-06-10T08:19:27;100877.25;;;20.69
79172;BMP280;68597;53.238;-1.418;2023-06-10T08:21:53;100869.78;;;20.83
79172;BMP280;68597;53.238;-1.418;2023-06-10T08:24:19;100868.09;;;20.99
79172;BMP280;68597;53.238;-1.418;2023-06-10T08:26:45;100869.41;;;21.17
79172;BMP280;68597;53.238;-1.418;2023-06-10T08:29:13;100863.63;;;21.36
79172;BMP280;68597;53.238;-1.418;2023-06-10T08:31:45;100859.34;;;21.56
79172;BMP280;68597;53.238;-1.418;2023-06-10T08:34:14;100860.72;;;21.77
79172;BMP280;68597;53.238;-1.418;2023-06-10T08:36:40;100860.31;;;21.92
79172;BMP280;68597;53.238;-1.418;2023-06-10T08:39:07;100851.84;;;22.03
79172;BMP280;68597;53.238;-1.418;2023-06-10T08:41:35;100854.13;;;22.16
79172;BMP280;68597;53.238;-1.418;2023-06-10T08:44:08;100851.56;;;22.32
79172;BMP280;68597;53.238;-1.418;2023-06-10T08:46:34;100848.16;;;22.45
79172;BMP280;68597;53.238;-1.418;2023-06-10T08:49:05;100844.69;;;22.58
79172;BMP280;68597;53.238;-1.418;2023-06-10T08:51:35;100841.03;;;22.67
79172;BMP280;68597;53.238;-1.418;2023-06-10T08:54:02;100841.19;;;22.81
79172;BMP280;68597;53.238;-1.418;2023-06-10T08:56:29;100839.09;;;22.93
79172;BMP280;68597;53.238;-1.418;2023-06-10T08:58:57;100838.84;;;23.00
79172;BMP280;68597;53.238;-1.418;2023-06-10T09:01:25;100841.56;;;23.10
79172;BMP280;68597;53.238;-1.418;2023-06-10T09:03:54;100837.38;;;23.23
79172;BMP280;68597;53.238;-1.418;2023-06-10T09:06:22;100831.16;;;23.38
79172;BMP280;68597;53.238;-1.418;2023-06-10T09:08:52;100828.09;;;23.59
79172;BMP280;68597;53.238;-1.418;2023-06-10T09:11:17;100832.91;;;23.80
79172;BMP280;68597;53.238;-1.418;2023-06-10T09:13:43;100828.50;;;23.90
79172;BMP280;68597;53.238;-1.418;2023-06-10T09:16:10;100834.19;;;24.02
79172;BMP280;68597;53.238;-1.418;2023-06-10T09:18:37;100825.47;;;24.11
79172;BMP280;68597;53.238;-1.418;2023-06-10T09:21:05;100825.91;;;24.19
79172;BMP280;68597;53.238;-1.418;2023-06-10T09:23:31;100825.00;;;24.28
79172;BMP280;68597;53.238;-1.418;2023-06-10T09:25:59;100819.63;;;24.34
79172;BMP280;68597;53.238;-1.418;2023-06-10T09:28:25;100816.78;;;24.48
79172;BMP280;68597;53.238;-1.418;2023-06-10T09:31:02;100824.16;;;24.65
79172;BMP280;68597;53.238;-1.418;2023-06-10T09:33:30;100828.94;;;24.74
79172;BMP280;68597;53.238;-1.418;2023-06-10T09:35:57;100829.47;;;24.84
79172;BMP280;68597;53.238;-1.418;2023-06-10T09:38:23;100838.69;;;24.96
79172;BMP280;68597;53.238;-1.418;2023-06-10T09:40:49;100832.22;;;25.09
79172;BMP280;68597;53.238;-1.418;2023-06-10T09:43:18;100826.94;;;25.17
79172;BMP280;68597;53.238;-1.418;2023-06-10T09:45:48;100828.81;;;25.26
79172;BMP280;68597;53.238;-1.418;2023-06-10T09:48:15;100825.56;;;25.32
79172;BMP280;68597;53.238;-1.418;2023-06-10T09:50:42;100825.66;;;25.47
79172;BMP280;68597;53.238;-1.418;2023-06-10T09:53:09;100818.94;;;25.56
79172;BMP280;68597;53.238;-1.418;2023-06-10T09:55:37;100808.53;;;25.63
79172;BMP280;68597;53.238;-1.418;2023-06-10T09:58:03;100793.91;;;25.70
79172;BMP280;68597;53.238;-1.418;2023-06-10T10:00:31;100807.91;;;25.93
79172;BMP280;68597;53.238;-1.418;2023-06-10T10:02:58;100810.03;;;26.08
79172;BMP280;68597;53.238;-1.418;2023-06-10T10:05:24;100812.00;;;26.20
79172;BMP280;68597;53.238;-1.418;2023-06-10T10:07:50;100810.53;;;26.34
79172;BMP280;68597;53.238;-1.418;2023-06-10T10:10:19;100801.88;;;26.48
79172;BMP280;68597;53.238;-1.418;2023-06-10T10:12:47;100809.28;;;26.68
79172;BMP280;68597;53.238;-1.418;2023-06-10T10:15:13;100810.56;;;26.81
79172;BMP280;68597;53.238;-1.418;2023-06-10T10:17:46;100815.31;;;26.92
79172;BMP280;68597;53.238;-1.418;2023-06-10T10:20:19;100809.84;;;26.98
79172;BMP280;68597;53.238;-1.418;2023-06-10T10:22:46;100812.44;;;27.08
79172;BMP280;68597;53.238;-1.418;2023-06-10T10:25:16;100804.75;;;27.12
79172;BMP280;68597;53.238;-1.418;2023-06-10T10:27:44;100812.13;;;27.17
79172;BMP280;68597;53.238;-1.418;2023-06-10T10:30:14;100812.50;;;27.25
79172;BMP280;68597;53.238;-1.418;2023-06-10T10:32:52;100803.97;;;27.27
79172;BMP280;68597;53.238;-1.418;2023-06-10T10:35:21;100804.31;;;27.35
79172;BMP280;68597;53.238;-1.418;2023-06-10T10:37:47;100809.16;;;27.48
79172;BMP280;68597;53.238;-1.418;2023-06-10T10:40:13;100812.81;;;27.66
79172;BMP280;68597;53.238;-1.418;2023-06-10T10:42:40;100813.53;;;27.85
79172;BMP280;68597;53.238;-1.418;2023-06-10T10:45:07;100814.16;;;28.01
79172;BMP280;68597;53.238;-1.418;2023-06-10T10:47:34;100805.94;;;28.11
79172;BMP280;68597;53.238;-1.418;2023-06-10T10:50:14;100796.25;;;28.20
79172;BMP280;68597;53.238;-1.418;2023-06-10T10:52:51;100802.13;;;28.24
79172;BMP280;68597;53.238;-1.418;2023-06-10T10:55:17;100790.63;;;28.24
79172;BMP280;68597;53.238;-1.418;2023-06-10T10:57:43;100797.94;;;28.27
79172;BMP280;68597;53.238;-1.418;2023-06-10T11:00:10;100793.88;;;28.34
79172;BMP280;68597;53.238;-1.418;2023-06-10T11:02:40;100786.97;;;28.41
79172;BMP280;68597;53.238;-1.418;2023-06-10T11:05:10;100788.91;;;28.54
79172;BMP280;68597;53.238;-1.418;2023-06-10T11:07:37;100790.88;;;28.69
79172;BMP280;68597;53.238;-1.418;2023-06-10T11:10:06;100787.84;;;28.85
79172;BMP280;68597;53.238;-1.418;2023-06-10T11:12:49;100790.53;;;29.00
79172;BMP280;68597;53.238;-1.418;2023-06-10T11:15:18;100796.78;;;29.14
79172;BMP280;68597;53.238;-1.418;2023-06-10T11:18:07;100787.88;;;29.28
79172;BMP280;68597;53.238;-1.418;2023-06-10T11:20:45;100793.56;;;29.48
79172;BMP280;68597;53.238;-1.418;2023-06-10T11:23:25;100789.66;;;29.61
79172;BMP280;68597;53.238;-1.418;2023-06-10T11:25:51;100788.66;;;29.74
79172;BMP280;68597;53.238;-1.418;2023-06-10T11:28:18;100785.31;;;29.83
79172;BMP280;68597;53.238;-1.418;2023-06-10T11:30:44;100791.41;;;29.93
79172;BMP280;68597;53.238;-1.418;2023-06-10T11:33:16;100789.44;;;30.00
79172;BMP280;68597;53.238;-1.418;2023-06-10T11:35:44;100778.25;;;30.12
79172;BMP280;68597;53.238;-1.418;2023-06-10T11:38:11;100778.63;;;30.24
79172;BMP280;68597;53.238;-1.418;2023-06-10T11:40:39;100778.13;;;30.31
79172;BMP280;68597;53.238;-1.418;2023-06-10T11:43:06;100770.25;;;30.34
79172;BMP280;68597;53.238;-1.418;2023-06-10T11:45:32;100774.09;;;30.42
79172;BMP280;68597;53.238;-1.418;2023-06-10T11:47:58;100770.72;;;30.50
79172;BMP280;68597;53.238;-1.418;2023-06-10T11:50:29;100776.69;;;30.58
79172;BMP280;68597;53.238;-1.418;2023-06-10T11:52:57;100758.13;;;30.65
79172;BMP280;68597;53.238;-1.418;2023-06-10T11:55:23;100761.56;;;30.85
79172;BMP280;68597;53.238;-1.418;2023-06-10T11:57:49;100763.44;;;31.02
79172;BMP280;68597;53.238;-1.418;2023-06-10T12:00:16;100768.91;;;31.20
79172;BMP280;68597;53.238;-1.418;2023-06-10T12:02:42;100762.72;;;31.31
79172;BMP280;68597;53.238;-1.418;2023-06-10T12:05:11;100760.03;;;31.42
79172;BMP280;68597;53.238;-1.418;2023-06-10T12:07:37;100760.91;;;31.46
79172;BMP280;68597;53.238;-1.418;2023-06-10T12:10:06;100761.75;;;31.53
79172;BMP280;68597;53.238;-1.418;2023-06-10T12:12:34;100744.56;;;31.59
79172;BMP280;68597;53.238;-1.418;2023-06-10T12:15:00;100753.34;;;31.65
79172;BMP280;68597;53.238;-1.418;2023-06-10T12:17:36;100737.59;;;31.70
79172;BMP280;68597;53.238;-1.418;2023-06-10T12:20:03;100735.66;;;31.80
79172;BMP280;68597;53.238;-1.418;2023-06-10T12:22:36;100748.09;;;31.89
79172;BMP280;68597;53.238;-1.418;2023-06-10T12:25:05;100744.03;;;32.02
79172;BMP280;68597;53.238;-1.418;2023-06-10T12:27:32;100735.66;;;32.16
79172;BMP280;68597;53.238;-1.418;2023-06-10T12:29:58;100740.19;;;32.27
79172;BMP280;68597;53.238;-1.418;2023-06-10T12:32:35;100730.91;;;32.32
79172;BMP280;68597;53.238;-1.418;2023-06-10T12:35:03;100736.19;;;32.44
79172;BMP280;68597;53.238;-1.418;2023-06-10T12:37:29;100732.59;;;32.46
79172;BMP280;68597;53.238;-1.418;2023-06-10T12:39:55;100721.84;;;32.50
79172;BMP280;68597;53.238;-1.418;2023-06-10T12:42:23;100719.72;;;32.53
79172;BMP280;68597;53.238;-1.418;2023-06-10T12:44:53;100722.75;;;32.61
79172;BMP280;68597;53.238;-1.418;2023-06-10T12:47:19;100706.88;;;32.64
79172;BMP280;68597;53.238;-1.418;2023-06-10T12:49:45;100710.50;;;32.66
79172;BMP280;68597;53.238;-1.418;2023-06-10T12:52:12;100717.81;;;32.71
79172;BMP280;68597;53.238;-1.418;2023-06-10T12:54:38;100706.25;;;32.71
79172;BMP280;68597;53.238;-1.418;2023-06-10T12:57:04;100717.28;;;32.81
79172;BMP280;68597;53.238;-1.418;2023-06-10T12:59:32;100713.78;;;32.88
79172;BMP280;68597;53.238;-1.418;2023-06-10T13:01:58;100704.50;;;32.96
79172;BMP280;68597;53.238;-1.418;2023-06-10T13:04:24;100702.47;;;33.04
79172;BMP280;68597;53.238;-1.418;2023-06-10T13:06:50;100700.44;;;33.15
79172;BMP280;68597;53.238;-1.418;2023-06-10T13:09:16;100699.88;;;33.26
79172;BMP280;68597;53.238;-1.418;2023-06-10T13:11:42;100693.56;;;33.40
79172;BMP280;68597;53.238;-1.418;2023-06-10T13:14:09;100694.47;;;33.55
79172;BMP280;68597;53.238;-1.418;2023-06-10T13:16:38;100688.88;;;33.71
79172;BMP280;68597;53.238;-1.418;2023-06-10T13:19:05;100680.28;;;33.81
79172;BMP280;68597;53.238;-1.418;2023-06-10T13:21:32;100684.84;;;34.00
79172;BMP280;68597;53.238;-1.418;2023-06-10T13:23:58;100676.94;;;34.06
79172;BMP280;68597;53.238;-1.418;2023-06-10T13:26:24;100687.88;;;34.14
79172;BMP280;68597;53.238;-1.418;2023-06-10T13:28:50;100683.59;;;34.21
79172;BMP280;68597;53.238;-1.418;2023-06-10T13:31:16;100675.00;;;34.33
79172;BMP280;68597;53.238;-1.418;2023-06-10T13:33:44;100681.59;;;34.43
79172;BMP280;68597;53.238;-1.418;2023-06-10T13:36:10;100673.63;;;34.44
79172;BMP280;68597;53.238;-1.418;2023-06-10T13:38:36;100657.69;;;34.43
79172;BMP280;68597;53.238;-1.418;2023-06-10T13:41:02;100669.38;;;34.53
79172;BMP280;68597;53.238;-1.418;2023-06-10T13:43:27;100660.81;;;34.71
79172;BMP280;68597;53.238;-1.418;2023-06-10T13:45:53;100649.97;;;34.84
79172;BMP280;68597;53.238;-1.418;2023-06-10T13:48:19;100652.22;;;34.93
79172;BMP280;68597;53.238;-1.418;2023-06-10T13:50:47;100653.72;;;35.00